Time;durP1;ratioP1;P1;durP2;ratioP2;P2;SDS_P1;SDS_P2;PMS_P1;PMS_P2;Temp;Humidity;BMP_temperature;BMP_pressure;BME280_temperature;BME280_humidity;BME280_pressure;Samples;Min_cycle;Max_cycle;Signal;HPM_P1;HPM_P2
2022/01/05 00:05:32;;;;;;;15.07;1.40;;;3.20;99.90;;;;;;6191420;23;20491;-89
2022/01/05 00:07:58;;;;;;;10.27;1.35;;;3.20;99.90;;;;;;6140399;23;20017;-90
2022/01/05 00:10:24;;;;;;;11.10;1.45;;;3.10;99.90;;;;;;6165221;23;20017;-91
2022/01/05 00:12:50;;;;;;;7.00;1.37;;;3.10;99.90;;;;;;6140681;23;20398;-92
2022/01/05 00:15:16;;;;;;;6.90;1.10;;;3.10;99.90;;;;;;6138759;23;20026;-91
2022/01/05 00:17:41;;;;;;;10.57;1.73;;;3.10;99.90;;;;;;6138769;23;20024;-91
2022/01/05 00:20:09;;;;;;;11.43;1.05;;;3.00;99.90;;;;;;6141017;23;20017;-93
2022/01/05 00:22:34;;;;;;;8.90;1.45;;;3.00;99.90;;;;;;6142738;23;20017;-91
2022/01/05 00:25:00;;;;;;;7.55;1.33;;;3.00;99.90;;;;;;6142123;23;20024;-91
2022/01/05 00:27:27;;;;;;;10.13;1.50;;;3.00;99.90;;;;;;6148852;23;20017;-92
2022/01/05 00:29:58;;;;;;;9.43;1.10;;;3.00;99.90;;;;;;6144698;23;20017;-92
2022/01/05 00:32:32;;;;;;;14.07;1.45;;;2.90;99.90;;;;;;6169767;23;20027;-92
2022/01/05 00:35:01;;;;;;;8.50;1.70;;;2.90;99.90;;;;;;6147184;23;20025;-91
2022/01/05 00:37:30;;;;;;;8.33;1.20;;;2.90;99.90;;;;;;6165529;23;20025;-90
2022/01/05 00:40:07;;;;;;;12.30;2.28;;;2.90;99.90;;;;;;6142562;23;20063;-92
2022/01/05 00:42:40;;;;;;;11.43;1.90;;;2.90;99.90;;;;;;6139912;23;20024;-90
2022/01/05 00:45:07;;;;;;;;;;;2.90;99.90;;;;;;6139146;23;20123;-91
2022/01/05 00:47:41;;;;;;;16.35;1.73;;;2.90;99.90;;;;;;6140444;23;19916;-91
2022/01/05 00:50:19;;;;;;;12.57;1.80;;;2.90;99.90;;;;;;6163607;23;20017;-92
2022/01/05 00:53:00;;;;;;;12.23;2.08;;;2.90;99.90;;;;;;6142963;23;20048;-93
2022/01/05 00:58:12;;;;;;;9.40;1.88;;;2.90;99.90;;;;;;6148874;23;20025;-91
2022/01/05 01:00:45;;;;;;;15.73;1.70;;;2.90;99.90;;;;;;6133208;23;20333;-92
2022/01/05 01:03:13;;;;;;;11.45;1.73;;;2.90;99.90;;;;;;6111445;23;20017;-92
2022/01/05 01:05:44;;;;;;;10.85;1.88;;;2.90;99.90;;;;;;6135805;23;20024;-91
2022/01/05 01:08:10;;;;;;;11.15;1.88;;;3.00;99.90;;;;;;6109425;23;20005;-90
2022/01/05 01:10:36;;;;;;;11.53;1.47;;;3.00;99.90;;;;;;6113246;23;20140;-90
2022/01/05 01:13:03;;;;;;;13.30;1.67;;;3.00;99.90;;;;;;6139841;23;20010;-91
2022/01/05 01:15:29;;;;;;;14.43;2.20;;;3.00;99.90;;;;;;6136970;23;20017;-92
2022/01/05 01:18:02;;;;;;;9.57;1.70;;;3.00;99.90;;;;;;6141694;23;20049;-93
2022/01/05 01:20:42;;;;;;;10.80;1.90;;;3.00;99.90;;;;;;6168141;23;20017;-90
2022/01/05 01:23:11;;;;;;;15.00;2.10;;;3.00;99.90;;;;;;6139865;23;20018;-90
2022/01/05 01:25:38;;;;;;;13.93;1.90;;;3.10;99.90;;;;;;6109707;23;20391;-91
2022/01/05 01:28:06;;;;;;;;;;;3.10;99.90;;;;;;6111763;23;20017;-93
2022/01/05 01:30:34;;;;;;;11.65;1.77;;;3.10;99.90;;;;;;6137629;23;19919;-91
2022/01/05 01:33:00;;;;;;;13.70;1.93;;;3.10;99.90;;;;;;6111924;23;20037;-91
2022/01/05 01:35:27;;;;;;;12.27;2.07;;;3.10;99.90;;;;;;6136835;23;20019;-91
2022/01/05 01:37:56;;;;;;;11.52;1.95;;;3.20;99.90;;;;;;6113428;23;20018;-92
2022/01/05 01:40:22;;;;;;;12.77;2.35;;;3.20;99.90;;;;;;6112223;23;20064;-92
2022/01/05 01:42:48;;;;;;;17.67;2.23;;;3.20;99.90;;;;;;6088806;23;20071;-93
2022/01/05 01:45:17;;;;;;;16.90;2.28;;;3.20;99.90;;;;;;6134127;23;20303;-90
2022/01/05 01:47:43;;;;;;;15.10;2.45;;;3.20;99.90;;;;;;6108818;23;20510;-91
2022/01/05 01:50:31;;;;;;;14.80;2.67;;;3.30;99.90;;;;;;6133669;23;20009;-91
2022/01/05 01:52:59;;;;;;;13.80;1.80;;;3.30;99.90;;;;;;6109160;23;20447;-91
2022/01/05 01:55:30;;;;;;;13.15;1.98;;;3.30;99.90;;;;;;6110348;23;20018;-93
2022/01/05 01:57:56;;;;;;;15.10;2.17;;;3.30;99.90;;;;;;6110181;23;20096;-91
2022/01/05 02:05:36;;;;;;;14.02;1.88;;;3.40;99.90;;;;;;6221650;23;20032;-90
2022/01/05 02:08:17;;;;;;;13.13;2.05;;;3.40;99.90;;;;;;6220723;23;20040;-89
2022/01/05 02:11:08;;;;;;;15.27;2.03;;;3.40;99.90;;;;;;6174360;23;20020;-90
2022/01/05 02:13:41;;;;;;;15.95;2.05;;;3.40;99.90;;;;;;6219872;23;20027;-89
2022/01/05 02:16:18;;;;;;;14.63;2.63;;;3.40;99.90;;;;;;6188977;23;20021;-91
2022/01/05 02:19:35;;;;;;;14.68;2.35;;;3.40;99.90;;;;;;6098676;23;20027;-90
2022/01/05 02:22:16;;;;;;;13.35;2.05;;;3.50;99.90;;;;;;6185678;23;20048;-89
2022/01/05 02:24:47;;;;;;;15.50;2.50;;;3.50;99.90;;;;;;6163236;23;20350;-89
2022/01/05 02:27:19;;;;;;;13.75;3.08;;;3.50;99.90;;;;;;6082380;23;20020;-89
2022/01/05 02:29:46;;;;;;;10.18;2.15;;;3.50;99.90;;;;;;6103022;23;20017;-89
2022/01/05 02:32:23;;;;;;;12.32;2.00;;;3.50;99.90;;;;;;6108123;23;20025;-89
2022/01/05 02:34:59;;;;;;;14.57;2.35;;;3.50;99.90;;;;;;6110518;23;20388;-90
2022/01/05 02:42:43;;;;;;;16.05;2.30;;;3.60;99.90;;;;;;6249167;23;20030;-91
2022/01/05 02:45:17;;;;;;;12.40;1.95;;;3.60;99.90;;;;;;6231147;23;20020;-93
2022/01/05 02:48:06;;;;;;;20.08;2.70;;;3.60;99.90;;;;;;6252782;23;20027;-90
2022/01/05 02:50:39;;;;;;;12.82;2.22;;;3.60;99.90;;;;;;6225897;23;20020;-91
2022/01/05 02:53:08;;;;;;;17.23;2.22;;;3.60;99.90;;;;;;6214061;23;20016;-90
2022/01/05 02:55:44;;;;;;;;;;;;;;;;;;;;;
2022/01/05 02:58:27;;;;;;;18.23;2.63;;;3.70;99.90;;;;;;6248245;23;20023;-91
2022/01/05 03:42:48;;;;;;;14.65;2.00;;;3.70;99.90;;;;;;6250440;23;20028;-91
2022/01/05 03:45:18;;;;;;;13.48;2.15;;;3.70;99.90;;;;;;6207735;23;20048;-90
2022/01/05 03:47:58;;;;;;;15.60;2.20;;;3.70;99.90;;;;;;6158680;23;20055;-90
2022/01/05 03:50:31;;;;;;;14.63;2.65;;;3.70;99.90;;;;;;6215446;23;20020;-89
2022/01/05 03:52:58;;;;;;;15.63;2.45;;;3.70;99.90;;;;;;6239820;23;20027;-92
2022/01/05 03:55:24;;;;;;;16.27;2.10;;;3.70;99.90;;;;;;6232620;23;20050;-92
2022/01/05 03:57:53;;;;;;;9.80;1.58;;;3.70;99.90;;;;;;6211486;23;20016;-94
2022/01/05 04:00:19;;;;;;;13.20;1.65;;;3.70;99.90;;;;;;6225194;23;20031;-90
2022/01/05 04:02:46;;;;;;;13.25;1.90;;;3.70;99.90;;;;;;6224808;23;20012;-90
2022/01/05 04:05:17;;;;;;;14.02;1.85;;;3.70;99.90;;;;;;6252087;23;20453;-90
2022/01/05 04:07:52;;;;;;;10.27;1.60;;;3.70;99.90;;;;;;6209261;23;20016;-89
2022/01/05 04:10:43;;;;;;;15.27;1.73;;;3.70;99.90;;;;;;6236772;23;20031;-91
2022/01/05 04:13:17;;;;;;;9.85;1.88;;;3.70;99.90;;;;;;6203425;23;20027;-91
2022/01/05 04:18:38;;;;;;;18.70;2.65;;;3.70;99.90;;;;;;6253156;23;20034;-91
2022/01/05 04:21:18;;;;;;;13.82;1.90;;;3.70;99.90;;;;;;6204113;23;20083;-94
2022/01/05 04:24:07;;;;;;;12.98;1.92;;;3.70;99.90;;;;;;6191679;23;20437;-91
2022/01/05 04:31:44;;;;;;;12.60;1.30;;;3.70;99.90;;;;;;6222817;23;20027;-88
2022/01/05 04:34:09;;;;;;;14.45;1.58;;;3.70;99.90;;;;;;6194615;23;20025;-90
2022/01/05 04:36:35;;;;;;;11.07;1.90;;;3.70;99.90;;;;;;6169535;23;20040;-88
2022/01/05 04:39:02;;;;;;;11.97;1.23;;;3.70;99.90;;;;;;6197400;23;20027;-89
2022/01/05 04:41:29;;;;;;;10.77;1.50;;;3.70;99.90;;;;;;6216740;23;20323;-88
2022/01/05 04:54:17;;;;;;;15.10;1.90;;;3.70;99.90;;;;;;6155669;23;20030;-90
2022/01/05 05:02:20;;;;;;;14.13;1.85;;;3.60;99.90;;;;;;6138585;23;20026;-93
2022/01/05 05:04:49;;;;;;;12.80;1.98;;;3.70;99.90;;;;;;6165922;23;20025;-95
2022/01/05 05:07:14;;;;;;;17.80;2.30;;;3.70;99.90;;;;;;6143063;23;20044;-94
2022/01/05 05:09:40;;;;;;;12.07;1.83;;;3.70;99.90;;;;;;6140697;23;20455;-92
2022/01/05 05:12:17;;;;;;;12.47;1.87;;;3.80;99.90;;;;;;6138892;23;20013;-91
2022/01/05 05:14:46;;;;;;;15.48;2.28;;;3.80;99.90;;;;;;6166669;23;20020;-91
2022/01/05 05:17:15;;;;;;;11.30;1.70;;;3.80;99.90;;;;;;6168998;23;20020;-92
2022/01/05 05:19:42;;;;;;;14.70;2.38;;;3.90;99.90;;;;;;6144791;23;20044;-92
2022/01/05 05:22:15;;;;;;;15.15;1.75;;;3.90;99.90;;;;;;6143281;23;20036;-92
2022/01/05 05:27:19;;;;;;;15.40;2.47;;;4.00;99.90;;;;;;6194429;23;20032;-89
2022/01/05 05:29:45;;;;;;;13.40;1.83;;;4.00;99.90;;;;;;6144236;23;20469;-95
2022/01/05 05:32:15;;;;;;;18.92;2.42;;;4.00;99.90;;;;;;6145981;23;20065;-91
2022/01/05 05:34:57;;;;;;;16.58;3.13;;;4.00;99.90;;;;;;6148515;23;20021;-91
2022/01/05 05:42:38;;;;;;;21.00;2.15;;;4.10;99.90;;;;;;6168141;23;20021;-91
2022/01/05 05:45:12;;;;;;;14.82;2.63;;;4.10;99.90;;;;;;6114994;23;20025;-93
2022/01/05 05:47:38;;;;;;;21.50;2.17;;;4.10;99.90;;;;;;6111264;23;20093;-93
2022/01/05 05:50:07;;;;;;;14.27;2.10;;;4.00;99.90;;;;;;6088291;23;20017;-93
2022/01/05 05:52:35;;;;;;;12.77;1.85;;;4.00;99.90;;;;;;6110781;23;20027;-96
2022/01/05 05:55:02;;;;;;;10.05;1.42;;;4.00;99.90;;;;;;6109301;23;20017;-96
2022/01/05 05:57:29;;;;;;;8.40;1.35;;;3.90;99.90;;;;;;6108239;23;20021;-96
2022/01/05 06:00:19;;;;;;;8.70;1.48;;;3.90;99.90;;;;;;6133973;23;20017;-94
2022/01/05 06:03:02;;;;;;;11.85;1.80;;;3.80;99.90;;;;;;6132723;23;20073;-94
2022/01/05 06:51:50;;;;;;;20.73;2.50;;;4.20;99.90;;;;;;6136245;23;20030;-95
2022/01/05 06:56:54;;;;;;;15.80;2.70;;;4.20;99.90;;;;;;6156942;23;20028;-92
2022/01/05 06:59:26;;;;;;;12.80;2.30;;;4.20;99.90;;;;;;6135886;23;20032;-91
2022/01/05 07:02:02;;;;;;;16.50;2.33;;;4.20;99.90;;;;;;6161217;23;20025;-92
2022/01/05 07:04:47;;;;;;;15.52;1.92;;;4.30;99.90;;;;;;6133482;23;20045;-94
2022/01/05 07:12:25;;;;;;;16.67;1.85;;;4.40;99.90;;;;;;6160748;23;20026;-95
2022/01/05 07:14:56;;;;;;;13.13;2.20;;;4.40;99.90;;;;;;6134288;23;20022;-92
2022/01/05 07:17:23;;;;;;;12.38;1.52;;;4.40;99.90;;;;;;6108676;23;20014;-92
2022/01/05 07:19:48;;;;;;;;;;;4.40;99.90;;;;;;6084152;23;20021;-93
2022/01/05 07:22:14;;;;;;;12.65;1.58;;;4.40;99.90;;;;;;6106131;23;19916;-92
2022/01/05 07:24:43;;;;;;;13.88;1.55;;;4.40;99.90;;;;;;6107270;23;20018;-93
2022/01/05 07:27:09;;;;;;;16.20;1.83;;;4.40;99.90;;;;;;6084254;23;20096;-91
2022/01/05 07:29:35;;;;;;;11.27;1.50;;;4.40;99.90;;;;;;6108801;23;20021;-91
2022/01/05 07:32:25;;;;;;;10.37;1.20;;;4.40;99.90;;;;;;6108364;23;20470;-91
2022/01/05 07:34:51;;;;;;;11.32;1.30;;;4.30;99.90;;;;;;6106712;23;20088;-94
2022/01/05 07:37:16;;;;;;;11.83;1.50;;;4.40;99.90;;;;;;6107335;23;20045;-94
2022/01/05 07:39:42;;;;;;;12.83;1.50;;;4.30;99.90;;;;;;6109412;23;20017;-94
2022/01/05 07:42:11;;;;;;;17.63;1.65;;;4.30;99.90;;;;;;6109773;23;20443;-93
2022/01/05 07:44:37;;;;;;;13.30;1.90;;;4.40;99.90;;;;;;6108079;23;20024;-91
2022/01/05 07:47:52;;;;;;;12.65;1.70;;;4.30;99.90;;;;;;6109723;23;20018;-95
2022/01/05 07:50:43;;;;;;;14.40;1.75;;;4.40;99.90;;;;;;6111696;23;20069;-95
2022/01/05 07:53:09;;;;;;;12.40;2.47;;;4.40;99.90;;;;;;6113239;23;20045;-92
2022/01/05 07:55:36;;;;;;;13.63;1.63;;;4.40;99.90;;;;;;6110061;23;20439;-94
2022/01/05 07:58:01;;;;;;;;;;;4.40;99.90;;;;;;6111317;23;20096;-92
2022/01/05 08:00:27;;;;;;;9.30;1.23;;;4.40;99.90;;;;;;6114154;23;19916;-92
2022/01/05 08:03:12;;;;;;;9.57;1.50;;;4.50;99.90;;;;;;6112299;23;20487;-95
2022/01/05 08:06:05;;;;;;;9.50;1.40;;;4.50;99.90;;;;;;6086713;23;20021;-94
2022/01/05 08:08:34;;;;;;;11.40;1.67;;;4.50;99.90;;;;;;6107315;23;20053;-93
2022/01/05 08:11:23;;;;;;;13.00;2.10;;;4.60;99.90;;;;;;6107067;23;20029;-95
2022/01/05 08:13:49;;;;;;;15.15;1.83;;;4.60;99.90;;;;;;6157841;23;20071;-92
2022/01/05 08:16:15;;;;;;;11.53;1.73;;;4.70;99.90;;;;;;6143187;23;20017;-95
2022/01/05 08:18:41;;;;;;;10.32;1.30;;;4.80;99.90;;;;;;6145928;23;20108;-94
2022/01/05 08:21:07;;;;;;;8.60;1.37;;;4.80;99.90;;;;;;6137799;23;20013;-96
2022/01/05 08:23:48;;;;;;;8.90;0.90;;;4.80;99.90;;;;;;6146071;23;20021;-95
2022/01/05 08:30:44;;;;;;;8.90;1.25;;;4.80;99.90;;;;;;6190246;23;20583;-96
2022/01/05 08:34:02;;;;;;;10.48;1.25;;;4.80;99.90;;;;;;6152328;23;20017;-90
2022/01/05 08:36:28;;;;;;;9.82;1.35;;;4.80;99.90;;;;;;6162457;23;20024;-91
2022/01/05 08:38:53;;;;;;;12.83;1.53;;;4.80;99.90;;;;;;6164519;23;20017;-89
2022/01/05 08:41:19;;;;;;;12.80;2.07;;;4.80;99.90;;;;;;6170301;23;20027;-86
2022/01/05 08:43:45;;;;;;;10.77;1.47;;;4.80;99.90;;;;;;6165891;23;20112;-94
2022/01/05 08:46:11;;;;;;;11.20;1.58;;;4.80;99.90;;;;;;6160328;23;20398;-89
2022/01/05 08:48:42;;;;;;;11.13;1.40;;;4.80;99.90;;;;;;6187790;23;20013;-87
2022/01/05 08:51:18;;;;;;;13.98;1.98;;;4.80;99.90;;;;;;6159986;23;20075;-88
2022/01/05 08:53:44;;;;;;;12.90;1.80;;;4.80;99.90;;;;;;6187605;23;20071;-87
2022/01/05 08:56:10;;;;;;;15.23;1.90;;;4.90;99.90;;;;;;6162811;23;20017;-88
2022/01/05 08:58:36;;;;;;;16.95;2.67;;;4.90;99.90;;;;;;6186661;23;20017;-87
2022/01/05 09:03:37;;;;;;;17.65;2.03;;;5.10;99.90;;;;;;6206823;22;20021;-90
2022/01/05 09:06:04;;;;;;;13.30;2.17;;;5.20;99.90;;;;;;6193155;23;20028;-93
2022/01/05 09:08:32;;;;;;;19.27;2.15;;;5.20;99.90;;;;;;6192883;23;20016;-95
2022/01/05 09:10:58;;;;;;;16.35;1.88;;;5.30;99.90;;;;;;6167047;23;20032;-89
2022/01/05 09:13:23;;;;;;;15.40;1.80;;;5.30;99.90;;;;;;6195670;23;20016;-87
2022/01/05 09:15:49;;;;;;;15.93;1.50;;;5.30;99.90;;;;;;6197305;23;20389;-90
2022/01/05 09:18:15;;;;;;;13.77;1.50;;;5.40;99.90;;;;;;6190618;23;20020;-91
2022/01/05 09:20:43;;;;;;;15.93;2.13;;;5.30;99.90;;;;;;6190787;23;20012;-92
2022/01/05 09:23:12;;;;;;;20.50;1.75;;;5.30;99.90;;;;;;6218221;23;20020;-93
2022/01/05 09:25:40;;;;;;;19.00;2.10;;;5.30;99.90;;;;;;6166598;23;20020;-89
2022/01/05 09:28:07;;;;;;;15.07;1.73;;;5.20;99.90;;;;;;6166302;23;20068;-95
2022/01/05 09:30:32;;;;;;;13.85;1.60;;;5.30;99.90;;;;;;6166746;23;20019;-92
2022/01/05 09:32:58;;;;;;;14.43;2.07;;;5.30;99.90;;;;;;6165963;23;20012;-90
2022/01/05 09:35:27;;;;;;;10.23;1.97;;;5.30;99.90;;;;;;6168470;23;20018;-96
2022/01/05 09:43:28;;;;;;;18.52;2.58;;;5.50;99.90;;;;;;6198285;23;20021;-87
2022/01/05 09:46:17;;;;;;;19.13;2.67;;;5.60;99.90;;;;;;6193655;23;20016;-88
2022/01/05 09:49:24;;;;;;;18.83;2.65;;;5.70;99.90;;;;;;6225317;23;20023;-88
2022/01/05 09:51:54;;;;;;;19.00;3.15;;;5.70;99.90;;;;;;6081358;23;20022;-89
2022/01/05 09:54:22;;;;;;;18.85;3.20;;;5.80;99.90;;;;;;6080512;23;20030;-87
2022/01/05 09:56:56;;;;;;;17.63;2.83;;;5.80;99.90;;;;;;6060456;23;20050;-88
2022/01/05 09:59:25;;;;;;;13.73;1.88;;;5.90;99.90;;;;;;6103849;23;20055;-88
2022/01/05 10:01:54;;;;;;;18.77;2.90;;;5.90;99.90;;;;;;6051650;23;20030;-86
2022/01/05 10:04:22;;;;;;;17.03;2.23;;;6.00;99.90;;;;;;6164146;23;20020;-88
2022/01/05 10:06:48;;;;;;;18.67;1.85;;;6.00;99.90;;;;;;6192518;23;20027;-88
2022/01/05 10:09:15;;;;;;;19.57;2.23;;;6.10;99.90;;;;;;6167396;23;20012;-87
2022/01/05 10:11:42;;;;;;;19.00;3.17;;;6.10;99.90;;;;;;6192979;23;20031;-87
2022/01/05 10:14:13;;;;;;;19.77;2.80;;;6.10;99.90;;;;;;6192808;23;20104;-90
2022/01/05 10:16:59;;;;;;;20.80;3.17;;;6.20;99.90;;;;;;6193047;23;20016;-88
2022/01/05 10:19:25;;;;;;;21.55;2.58;;;6.20;99.90;;;;;;6222675;23;20039;-88
2022/01/05 10:21:52;;;;;;;18.33;2.47;;;6.30;99.90;;;;;;6219528;23;20016;-88
2022/01/05 10:24:38;;;;;;;21.88;2.63;;;6.30;99.90;;;;;;6192486;23;20025;-88
2022/01/05 10:27:07;;;;;;;17.95;2.92;;;6.40;99.90;;;;;;6192099;23;20020;-88
2022/01/05 10:29:36;;;;;;;19.70;2.72;;;6.50;99.90;;;;;;6220426;23;20021;-88
2022/01/05 10:32:07;;;;;;;18.13;2.50;;;6.50;99.90;;;;;;6193845;23;20088;-89
2022/01/05 10:34:36;;;;;;;22.02;3.45;;;6.60;99.90;;;;;;6197022;23;20023;-86
2022/01/05 10:37:06;;;;;;;25.60;3.13;;;6.70;99.90;;;;;;6174192;23;20019;-87
2022/01/05 10:39:42;;;;;;;22.70;3.03;;;6.70;99.90;;;;;;6193443;23;20072;-87
2022/01/05 10:42:13;;;;;;;25.45;3.42;;;6.80;99.90;;;;;;6192605;23;20473;-89
2022/01/05 10:44:44;;;;;;;25.13;3.30;;;6.80;99.90;;;;;;6193206;23;20013;-89
2022/01/05 10:47:15;;;;;;;23.42;4.15;;;6.80;99.90;;;;;;6167282;23;20020;-88
2022/01/05 10:49:41;;;;;;;24.02;3.17;;;6.90;99.90;;;;;;6193114;23;20012;-90
2022/01/05 10:52:28;;;;;;;23.38;3.92;;;6.80;99.90;;;;;;6192870;23;20023;-89
2022/01/05 10:55:07;;;;;;;23.30;3.50;;;6.80;99.90;;;;;;6218383;23;20079;-88
2022/01/05 10:57:33;;;;;;;23.02;3.45;;;6.80;99.90;;;;;;6192261;23;20022;-89
2022/01/05 10:59:59;;;;;;;20.40;3.23;;;6.80;99.90;;;;;;6167005;23;20083;-89
2022/01/05 11:02:32;;;;;;;26.63;4.70;;;6.80;99.90;;;;;;6168310;23;20017;-90
2022/01/05 11:05:09;;;;;;;31.90;3.90;;;6.80;99.90;;;;;;6167096;23;20038;-89
2022/01/05 11:07:40;;;;;;;25.30;3.25;;;6.80;99.90;;;;;;6192535;23;20052;-89
2022/01/05 11:10:09;;;;;;;24.80;3.80;;;6.80;99.90;;;;;;6191757;23;20450;-89
2022/01/05 11:12:41;;;;;;;25.27;3.05;;;6.80;99.90;;;;;;6193003;23;20013;-90
2022/01/05 11:15:24;;;;;;;27.13;3.40;;;6.80;99.90;;;;;;6191824;23;20028;-92
2022/01/05 11:20:28;;;;;;;19.77;3.20;;;7.00;99.90;;;;;;6155188;23;20033;-90
2022/01/05 11:22:55;;;;;;;21.25;3.35;;;7.00;99.90;;;;;;6154704;23;20022;-90
2022/01/05 11:25:21;;;;;;;25.15;3.90;;;7.10;99.90;;;;;;6105774;23;20021;-88
2022/01/05 11:27:47;;;;;;;18.83;2.83;;;7.20;99.90;;;;;;6105633;23;20022;-88
2022/01/05 11:30:12;;;;;;;22.10;3.43;;;7.20;99.90;;;;;;6130396;23;20105;-90
2022/01/05 11:32:39;;;;;;;34.23;4.30;;;7.20;99.90;;;;;;6107394;23;20097;-93
2022/01/05 11:35:07;;;;;;;22.63;3.78;;;7.20;99.90;;;;;;6106143;23;20094;-93
2022/01/05 11:37:34;;;;;;;23.92;3.28;;;7.20;99.90;;;;;;6106025;23;20010;-93
2022/01/05 11:40:05;;;;;;;19.90;2.90;;;7.30;99.90;;;;;;6106086;23;20076;-90
2022/01/05 11:42:36;;;;;;;17.95;3.00;;;7.30;99.90;;;;;;6106441;23;20014;-92
2022/01/05 11:45:04;;;;;;;23.90;3.35;;;7.30;99.90;;;;;;6130365;23;20036;-92
2022/01/05 11:47:32;;;;;;;21.80;3.65;;;7.40;99.90;;;;;;6106129;23;20096;-90
2022/01/05 11:50:12;;;;;;;22.75;4.30;;;7.40;99.90;;;;;;6106307;23;20476;-91
2022/01/05 11:53:00;;;;;;;22.15;3.45;;;7.40;99.90;;;;;;6107543;23;20451;-93
2022/01/05 11:55:28;;;;;;;18.40;2.67;;;7.30;99.90;;;;;;6108216;23;20026;-89
2022/01/05 11:58:14;;;;;;;20.92;2.72;;;7.30;99.90;;;;;;6108100;23;20020;-92
2022/01/05 12:00:39;;;;;;;17.73;3.10;;;7.30;99.90;;;;;;6134017;23;20017;-91
2022/01/05 12:03:05;;;;;;;22.80;3.63;;;7.20;99.90;;;;;;6108680;23;20482;-93
2022/01/05 12:06:03;;;;;;;17.83;2.90;;;7.20;99.90;;;;;;6108684;23;20026;-91
2022/01/05 12:08:41;;;;;;;16.95;2.03;;;7.10;99.90;;;;;;6108882;23;20021;-92
2022/01/05 12:11:40;;;;;;;21.25;3.13;;;7.10;99.90;;;;;;6107999;23;20018;-90
2022/01/05 12:14:23;;;;;;;22.20;3.40;;;7.10;99.90;;;;;;6107402;23;20049;-92
2022/01/05 12:17:09;;;;;;;19.17;2.95;;;7.10;99.90;;;;;;6107506;23;20025;-91
2022/01/05 12:19:55;;;;;;;13.98;2.40;;;7.10;99.90;;;;;;6107250;23;20032;-94
2022/01/05 12:22:26;;;;;;;13.50;1.95;;;7.20;99.90;;;;;;6109322;23;20316;-90
2022/01/05 12:25:10;;;;;;;13.63;1.80;;;7.20;99.90;;;;;;6139936;23;20027;-90
2022/01/05 12:27:48;;;;;;;18.10;1.92;;;7.20;99.90;;;;;;6159722;23;20021;-91
2022/01/05 12:30:17;;;;;;;14.32;2.15;;;7.10;99.90;;;;;;6134859;23;20017;-90
2022/01/05 12:32:46;;;;;;;16.15;2.33;;;7.10;99.90;;;;;;6138474;23;20016;-91
2022/01/05 12:35:15;;;;;;;17.55;2.10;;;7.00;99.90;;;;;;6136407;23;20510;-94
2022/01/05 12:37:49;;;;;;;21.95;2.78;;;7.00;99.90;;;;;;6139826;23;20437;-92
2022/01/05 12:40:35;;;;;;;17.40;2.63;;;7.00;99.90;;;;;;6166231;23;20095;-89
2022/01/05 12:43:10;;;;;;;18.45;3.20;;;7.00;99.90;;;;;;6161480;23;20017;-95
2022/01/05 12:45:48;;;;;;;17.63;2.75;;;7.00;99.90;;;;;;6167745;23;20100;-90
2022/01/05 12:48:37;;;;;;;16.75;3.05;;;7.10;99.90;;;;;;6142426;23;20424;-93
2022/01/05 12:51:18;;;;;;;24.23;4.22;;;7.10;99.90;;;;;;6152350;23;20052;-90
2022/01/05 12:54:19;;;;;;;18.17;3.15;;;7.20;99.90;;;;;;6137223;23;20021;-90
2022/01/05 12:57:01;;;;;;;20.17;3.25;;;7.30;99.90;;;;;;6161555;23;20071;-89
2022/01/05 12:59:33;;;;;;;19.52;2.58;;;7.30;99.90;;;;;;6160993;23;20035;-89
2022/01/05 13:02:00;;;;;;;22.23;3.45;;;7.20;99.90;;;;;;6136919;23;20446;-88
2022/01/05 13:04:26;;;;;;;;;;;7.20;99.90;;;;;;6162368;23;20021;-93
2022/01/05 13:06:58;;;;;;;19.05;2.47;;;7.30;99.90;;;;;;6191907;23;19991;-89
2022/01/05 13:09:30;;;;;;;15.90;2.53;;;7.30;99.90;;;;;;6139999;23;20071;-90
2022/01/05 13:12:03;;;;;;;29.98;3.15;;;7.20;99.90;;;;;;6190663;23;20091;-91
2022/01/05 13:14:36;;;;;;;27.98;3.63;;;7.10;99.90;;;;;;6191899;23;20108;-89
2022/01/05 13:17:32;;;;;;;16.55;2.47;;;7.00;99.90;;;;;;6164734;23;20025;-88
2022/01/05 13:20:00;;;;;;;15.45;2.95;;;6.90;99.90;;;;;;6135810;23;20091;-89
2022/01/05 13:22:30;;;;;;;19.10;3.47;;;6.90;99.90;;;;;;6137464;23;20047;-88
2022/01/05 13:25:17;;;;;;;15.63;2.85;;;6.90;99.90;;;;;;6162957;23;20052;-88
2022/01/05 13:27:47;;;;;;;22.73;3.90;;;6.90;99.90;;;;;;6162966;23;20024;-89
2022/01/05 13:31:05;;;;;;;18.88;2.85;;;7.00;99.90;;;;;;6139193;23;20028;-90
2022/01/05 13:37:28;;;;;;;15.77;2.20;;;6.50;99.90;;;;;;6168404;23;20019;-88
2022/01/05 13:39:59;;;;;;;14.38;1.95;;;6.30;99.90;;;;;;6166958;23;20020;-87
2022/01/05 13:42:31;;;;;;;14.00;2.42;;;6.20;99.90;;;;;;6166065;23;20492;-86
2022/01/05 13:44:57;;;;;;;14.38;2.22;;;6.10;99.90;;;;;;6193391;23;20028;-94
2022/01/05 13:47:24;;;;;;;18.33;2.53;;;5.90;99.90;;;;;;6140612;23;20013;-92
2022/01/05 13:50:10;;;;;;;18.58;2.03;;;5.90;99.90;;;;;;6139699;23;20020;-93
2022/01/05 13:52:36;;;;;;;19.60;3.30;;;5.90;99.90;;;;;;6139996;23;20021;-93
2022/01/05 13:55:03;;;;;;;18.70;3.20;;;5.90;99.90;;;;;;6141874;23;20019;-95
2022/01/05 13:57:31;;;;;;;19.23;2.20;;;5.90;99.90;;;;;;6139991;23;20020;-94
2022/01/05 14:00:09;;;;;;;14.52;2.35;;;5.90;99.90;;;;;;6164258;23;20096;-93
2022/01/05 14:02:36;;;;;;;20.95;2.38;;;5.90;99.90;;;;;;6139743;23;20017;-94
2022/01/05 14:05:03;;;;;;;17.27;2.50;;;6.00;99.90;;;;;;6145934;23;20024;-91
2022/01/05 14:07:31;;;;;;;22.65;2.58;;;6.10;99.90;;;;;;6170340;23;20068;-89
2022/01/05 14:10:11;;;;;;;18.25;2.78;;;6.20;99.90;;;;;;6168248;23;20104;-90
2022/01/05 14:12:42;;;;;;;20.38;2.78;;;6.20;99.90;;;;;;6141002;23;20028;-93
2022/01/05 14:15:09;;;;;;;21.45;2.83;;;6.20;99.90;;;;;;6142539;23;20067;-92
2022/01/05 14:17:36;;;;;;;13.50;2.40;;;6.20;99.90;;;;;;6144384;23;20017;-92
2022/01/05 14:20:17;;;;;;;16.80;2.15;;;6.10;99.90;;;;;;6168248;23;20028;-93
2022/01/05 14:22:58;;;;;;;19.52;2.65;;;6.00;99.90;;;;;;6143234;23;20048;-93
2022/01/05 14:25:38;;;;;;;23.08;2.70;;;6.00;99.90;;;;;;6137695;23;20022;-96
2022/01/05 14:28:21;;;;;;;18.52;3.05;;;6.00;99.90;;;;;;6136796;23;20021;-93
2022/01/05 14:30:49;;;;;;;22.17;2.70;;;6.00;99.90;;;;;;6160406;23;20096;-90
2022/01/05 14:33:27;;;;;;;20.95;2.85;;;6.00;99.90;;;;;;6138481;23;20024;-96
2022/01/05 14:35:53;;;;;;;21.40;3.00;;;6.00;99.90;;;;;;6138164;23;20447;-91
2022/01/05 14:38:19;;;;;;;19.37;2.93;;;6.10;99.90;;;;;;6136546;23;20148;-89
2022/01/05 14:40:45;;;;;;;23.80;2.93;;;6.10;99.90;;;;;;6153349;23;20017;-90
2022/01/05 14:43:14;;;;;;;27.27;4.30;;;6.20;99.90;;;;;;6138000;23;20017;-91
2022/01/05 14:45:42;;;;;;;31.38;4.72;;;6.30;99.90;;;;;;6137044;23;20016;-92
2022/01/05 14:48:10;;;;;;;32.05;4.72;;;6.40;99.90;;;;;;6138431;23;20043;-88
2022/01/05 14:50:38;;;;;;;26.95;4.85;;;6.50;99.90;;;;;;6166936;23;20021;-91
2022/01/05 14:53:07;;;;;;;29.05;4.25;;;6.50;99.90;;;;;;6141267;23;20021;-93
2022/01/05 14:55:33;;;;;;;34.53;4.95;;;6.60;99.90;;;;;;6141193;23;20024;-93
2022/01/05 14:58:00;;;;;;;26.98;3.80;;;6.60;99.90;;;;;;6163288;23;20092;-92
2022/01/05 15:00:26;;;;;;;25.45;4.43;;;6.60;99.90;;;;;;6136956;23;20018;-92
2022/01/05 15:02:56;;;;;;;26.50;3.67;;;6.50;99.90;;;;;;6136902;23;20024;-90
2022/01/05 15:05:22;;;;;;;29.38;4.18;;;6.50;99.90;;;;;;6136155;23;20017;-92
2022/01/05 15:07:48;;;;;;;24.90;4.37;;;6.60;99.90;;;;;;6135941;23;20017;-92
2022/01/05 15:10:16;;;;;;;22.17;3.73;;;6.50;99.90;;;;;;6138136;23;20048;-89
2022/01/05 15:12:42;;;;;;;20.67;2.85;;;6.50;99.90;;;;;;6163594;23;20462;-90
2022/01/05 15:15:08;;;;;;;15.50;2.43;;;6.60;99.90;;;;;;6162497;23;20028;-91
2022/01/05 15:17:34;;;;;;;20.33;3.05;;;6.50;99.90;;;;;;6136448;23;20343;-89
2022/01/05 15:20:00;;;;;;;19.37;3.13;;;6.50;99.90;;;;;;6136370;23;20021;-89
2022/01/05 15:22:27;;;;;;;12.90;2.03;;;6.40;99.90;;;;;;6136746;23;20013;-90
2022/01/05 15:24:53;;;;;;;15.32;2.85;;;6.40;99.90;;;;;;6134820;23;20529;-91
2022/01/05 15:27:21;;;;;;;15.13;2.20;;;6.30;99.90;;;;;;6136440;23;20013;-92
2022/01/05 15:29:47;;;;;;;12.15;2.00;;;6.30;99.90;;;;;;6139075;23;20647;-93
2022/01/05 15:32:14;;;;;;;14.33;2.20;;;6.20;99.90;;;;;;6138663;23;20034;-93
2022/01/05 15:34:40;;;;;;;13.95;2.47;;;6.20;99.90;;;;;;6168006;23;20027;-89
2022/01/05 15:37:08;;;;;;;12.97;2.07;;;6.20;99.90;;;;;;6144055;23;20339;-91
2022/01/05 15:39:34;;;;;;;14.73;2.03;;;6.20;99.90;;;;;;6144843;23;20363;-94
2022/01/05 15:42:01;;;;;;;15.95;2.70;;;6.10;99.90;;;;;;6144014;23;20020;-88
2022/01/05 15:44:26;;;;;;;15.85;2.55;;;6.10;99.90;;;;;;6143765;23;20387;-91
2022/01/05 15:46:53;;;;;;;20.17;2.20;;;6.00;99.90;;;;;;6142251;23;20021;-89
2022/01/05 15:49:24;;;;;;;21.50;3.55;;;6.00;99.90;;;;;;6145028;23;20021;-88
2022/01/05 15:52:35;;;;;;;29.45;3.75;;;6.00;99.90;;;;;;6144167;23;20315;-88
2022/01/05 15:55:16;;;;;;;21.85;3.38;;;6.00;99.90;;;;;;6142059;23;20021;-90
2022/01/05 15:57:58;;;;;;;35.30;10.38;;;6.00;99.90;;;;;;6147445;23;20144;-90
2022/01/05 16:03:11;;;;;;;25.00;8.18;;;6.00;99.90;;;;;;6164733;23;20027;-94